Time;durP1;ratioP1;P1;durP2;ratioP2;P2;SDS_P1;SDS_P2;PMS_P1;PMS_P2;Temp;Humidity;BMP_temperature;BMP_pressure;BME280_temperature;BME280_humidity;BME280_pressure;Samples;Min_cycle;Max_cycle;Signal;HPM_P1;HPM_P2
2021/01/17 00:00:44;;;;;;;23.92;16.20;;;;;;;0.86;62.85;99865.28;4992559;28;20030;-29
2021/01/17 00:03:09;;;;;;;23.08;15.68;;;;;;;0.82;65.71;99860.84;4994229;28;20050;-29
2021/01/17 00:05:35;;;;;;;23.15;15.60;;;;;;;0.86;64.22;99856.75;4992552;28;20045;-30
2021/01/17 00:08:06;;;;;;;22.17;15.00;;;;;;;0.87;65.23;99861.94;4993857;28;20113;-29
2021/01/17 00:10:33;;;;;;;21.40;15.70;;;;;;;0.86;64.64;99851.66;5008753;28;20030;-30
2021/01/17 00:13:01;;;;;;;21.98;14.23;;;;;;;0.84;64.36;99849.03;4976252;28;20043;-30
2021/01/17 00:15:26;;;;;;;21.33;15.35;;;;;;;0.86;62.28;99847.41;4992231;28;20038;-30
2021/01/17 00:17:57;;;;;;;20.17;14.70;;;;;;;0.88;63.68;99845.81;4992470;28;20038;-31
2021/01/17 00:20:26;;;;;;;22.30;14.75;;;;;;;0.88;63.33;99844.97;5009293;28;20038;-30
2021/01/17 00:22:55;;;;;;;20.05;14.93;;;;;;;0.87;62.14;99844.06;4992311;28;20469;-30
2021/01/17 00:25:22;;;;;;;25.83;15.80;;;;;;;0.87;63.63;99854.28;4975973;28;20038;-30
2021/01/17 00:27:52;;;;;;;23.05;14.05;;;;;;;0.88;65.49;99845.81;4976091;28;20117;-31
2021/01/17 00:30:24;;;;;;;19.40;13.85;;;;;;;0.86;65.35;99847.41;4992657;28;20038;-30
2021/01/17 00:32:57;;;;;;;21.30;14.63;;;;;;;0.91;64.28;99846.00;4979264;28;20158;-30
2021/01/17 00:35:23;;;;;;;20.95;14.75;;;;;;;0.89;63.54;99850.13;4995849;28;20068;-30
2021/01/17 00:37:59;;;;;;;21.25;15.02;;;;;;;0.87;65.18;99853.41;4997358;28;20073;-30
2021/01/17 00:40:26;;;;;;;26.80;14.68;;;;;;;0.88;63.12;99850.06;4979225;28;20030;-30
2021/01/17 00:42:52;;;;;;;20.85;14.15;;;;;;;0.85;63.08;99843.16;4979817;28;20027;-30
2021/01/17 00:45:19;;;;;;;23.38;15.13;;;;;;;0.88;63.67;99845.81;4996072;28;20038;-29
2021/01/17 00:47:46;;;;;;;22.25;14.63;;;;;;;0.87;63.57;99849.19;4996866;28;20048;-30
2021/01/17 00:50:14;;;;;;;20.45;14.38;;;;;;;0.88;63.77;99856.03;4995564;28;20034;-29
2021/01/17 00:52:39;;;;;;;20.75;14.13;;;;;;;0.88;62.72;99848.38;4995102;28;20045;-30
2021/01/17 00:55:06;;;;;;;19.65;14.07;;;;;;;0.88;63.69;99844.97;4996371;28;20038;-31
2021/01/17 00:57:35;;;;;;;22.02;14.18;;;;;;;0.89;62.73;99846.72;4995377;28;20482;-30
2021/01/17 01:00:05;;;;;;;20.88;14.70;;;;;;;0.87;65.16;99844.06;4995488;28;20116;-30
2021/01/17 01:02:31;;;;;;;19.27;13.85;;;;;;;0.94;62.51;99844.41;5011682;28;20177;-30
2021/01/17 01:04:56;;;;;;;22.27;14.02;;;;;;;0.95;62.91;99851.25;4996316;28;20520;-30
2021/01/17 01:07:26;;;;;;;24.02;14.70;;;;;;;0.96;64.02;99848.78;4995281;28;20054;-30
2021/01/17 01:09:51;;;;;;;23.80;15.50;;;;;;;0.90;63.88;99849.34;4996115;28;20039;-30
2021/01/17 01:12:19;;;;;;;22.10;14.32;;;;;;;0.90;64.88;99838.28;4995978;28;20038;-30
2021/01/17 01:14:45;;;;;;;22.67;14.68;;;;;;;0.94;62.17;99841.84;4996235;28;20077;-30
2021/01/17 01:17:12;;;;;;;21.85;14.73;;;;;;;0.96;63.83;99850.47;4995899;28;20070;-30
2021/01/17 01:19:40;;;;;;;22.27;15.27;;;;;;;0.99;64.04;99843.84;4996304;28;20125;-31
2021/01/17 01:22:06;;;;;;;21.70;13.82;;;;;;;0.98;62.92;99844.63;4994349;28;20104;-31
2021/01/17 01:24:31;;;;;;;20.92;14.07;;;;;;;0.97;63.54;99842.00;4993290;28;20442;-30
2021/01/17 01:26:57;;;;;;;19.52;13.57;;;;;;;1.01;62.77;99838.81;4993041;28;20117;-30
2021/01/17 01:29:24;;;;;;;21.75;15.60;;;;;;;1.02;63.00;99843.09;4994885;28;20038;-30
2021/01/17 01:31:50;;;;;;;27.17;16.38;;;;;;;1.01;63.67;99842.25;4993173;28;20058;-30
2021/01/17 01:34:16;;;;;;;22.42;14.27;;;;;;;1.01;63.38;99841.38;4994128;28;20532;-31
2021/01/17 01:36:42;;;;;;;23.88;14.77;;;;;;;1.03;62.56;99842.31;4992839;28;20084;-31
2021/01/17 01:39:10;;;;;;;22.27;15.45;;;;;;;1.01;62.74;99842.25;4995690;28;20073;-31
2021/01/17 01:41:38;;;;;;;21.98;14.38;;;;;;;1.01;64.08;99841.38;4978627;28;20097;-30
2021/01/17 01:44:04;;;;;;;18.95;13.48;;;;;;;1.04;62.42;99842.41;4995583;28;20045;-30
2021/01/17 01:46:31;;;;;;;23.58;14.90;;;;;;;0.99;64.06;99833.63;4978326;28;20057;-30
2021/01/17 01:48:59;;;;;;;20.63;14.48;;;;;;;1.02;63.11;99841.44;4995635;28;20038;-30
2021/01/17 01:51:26;;;;;;;24.25;15.95;;;;;;;1.01;62.95;99829.47;4995324;28;20031;-30
2021/01/17 01:53:53;;;;;;;23.88;15.55;;;;;;;1.01;63.41;99823.50;4995729;28;20560;-30
2021/01/17 01:56:19;;;;;;;24.17;15.63;;;;;;;0.99;63.92;99832.75;4994301;28;20034;-30
2021/01/17 01:58:45;;;;;;;21.33;15.57;;;;;;;0.99;63.65;99825.97;4995797;28;20184;-30
2021/01/17 02:01:11;;;;;;;24.55;15.00;;;;;;;1.02;62.76;99825.22;4994209;28;20034;-32
2021/01/17 02:03:37;;;;;;;25.80;15.00;;;;;;;1.03;63.55;99824.44;4978302;28;20073;-30
2021/01/17 02:06:10;;;;;;;22.42;15.25;;;;;;;1.03;63.79;99827.00;4977331;28;20034;-31
2021/01/17 02:08:46;;;;;;;22.33;14.52;;;;;;;1.02;67.12;99830.34;4993796;28;20529;-30
2021/01/17 02:11:18;;;;;;;20.48;13.52;;;;;;;1.05;63.53;99821.19;4995596;28;20042;-30
2021/01/17 02:13:53;;;;;;;22.42;15.32;;;;;;;1.06;66.70;99824.59;4977806;28;20507;-30
2021/01/17 02:16:21;;;;;;;22.98;14.25;;;;;;;1.04;64.36;99831.31;4977507;28;20501;-30
2021/01/17 02:18:51;;;;;;;21.63;14.45;;;;;;;1.03;64.30;99824.44;4995328;28;20069;-31
2021/01/17 02:21:16;;;;;;;23.02;14.43;;;;;;;1.05;63.80;99825.41;4994892;28;20052;-30
2021/01/17 02:24:11;;;;;;;22.25;14.60;;;;;;;1.08;66.26;99834.91;4994975;28;20042;-30
2021/01/17 02:26:39;;;;;;;22.42;14.07;;;;;;;1.06;65.96;99830.59;4994926;28;20047;-30
2021/01/17 02:29:07;;;;;;;24.02;15.10;;;;;;;1.06;64.30;99830.59;4993574;28;20040;-31
2021/01/17 02:31:36;;;;;;;21.10;15.13;;;;;;;1.08;64.50;99842.56;4977958;28;20045;-31
2021/01/17 02:34:04;;;;;;;20.88;14.10;;;;;;;1.06;66.08;99842.47;4993554;28;20045;-30
2021/01/17 02:36:54;;;;;;;20.95;14.77;;;;;;;1.06;65.76;99840.81;4993576;28;20045;-30
2021/01/17 02:39:29;;;;;;;19.95;13.85;;;;;;;1.10;65.05;99848.59;4994787;28;20486;-30
2021/01/17 02:42:02;;;;;;;19.70;14.15;;;;;;;1.03;65.74;99842.31;4995263;28;20478;-29
2021/01/17 02:44:29;;;;;;;23.50;15.10;;;;;;;1.04;64.85;99849.16;4995127;28;20030;-30
2021/01/17 02:46:55;;;;;;;21.38;13.32;;;;;;;1.07;65.00;99851.88;4993223;28;20066;-30
2021/01/17 02:49:21;;;;;;;23.70;14.85;;;;;;;1.04;64.59;99847.50;4977235;28;20563;-30
2021/01/17 02:51:50;;;;;;;21.80;13.75;;;;;;;1.08;65.16;99853.63;4994672;28;20038;-30
2021/01/17 02:54:32;;;;;;;21.55;14.13;;;;;;;1.11;66.11;99847.81;4993116;28;20482;-31
2021/01/17 02:57:03;;;;;;;20.80;13.82;;;;;;;1.09;66.47;99851.97;4993310;28;20490;-30
2021/01/17 02:59:34;;;;;;;21.98;13.85;;;;;;;1.10;65.34;99843.50;5009531;28;20041;-30
2021/01/17 03:02:03;;;;;;;21.08;13.70;;;;;;;1.11;65.19;99842.69;4994199;28;20394;-30
2021/01/17 03:04:42;;;;;;;23.42;14.95;;;;;;;1.11;68.07;99843.59;4994244;28;20053;-31
2021/01/17 03:07:11;;;;;;;21.05;14.25;;;;;;;1.13;65.17;99846.22;4994561;28;20038;-30
2021/01/17 03:09:38;;;;;;;21.30;14.00;;;;;;;1.12;64.84;99849.56;4961206;28;20124;-30
2021/01/17 03:12:04;;;;;;;25.27;15.00;;;;;;;1.09;65.86;99840.06;4992678;28;20044;-30
2021/01/17 03:14:34;;;;;;;24.58;15.52;;;;;;;1.13;65.00;99836.88;4992712;28;20034;-30
2021/01/17 03:17:00;;;;;;;21.98;13.82;;;;;;;1.14;64.90;99846.31;4976901;28;20050;-30
2021/01/17 03:19:26;;;;;;;21.98;13.60;;;;;;;1.15;64.59;99835.28;4993844;28;20038;-30
2021/01/17 03:21:51;;;;;;;24.42;15.48;;;;;;;1.17;64.41;99838.78;4994006;28;20053;-30
2021/01/17 03:24:17;;;;;;;22.40;14.43;;;;;;;1.16;64.26;99831.06;4993023;28;20042;-30
2021/01/17 03:26:43;;;;;;;23.35;14.07;;;;;;;1.13;65.82;99821.56;4994334;28;20038;-30
2021/01/17 03:29:10;;;;;;;25.27;14.75;;;;;;;1.14;65.32;99818.22;4993982;28;20034;-30
2021/01/17 03:31:36;;;;;;;28.05;16.38;;;;;;;1.11;66.35;99817.16;4992899;28;20038;-30
2021/01/17 03:34:01;;;;;;;21.80;14.05;;;;;;;1.14;64.65;99813.13;4993671;28;20453;-30
2021/01/17 03:36:27;;;;;;;20.65;14.73;;;;;;;1.15;65.25;99816.53;4994450;28;20536;-30
2021/01/17 03:38:52;;;;;;;24.23;16.05;;;;;;;1.14;65.82;99804.56;4994009;28;20074;-30
2021/01/17 03:41:18;;;;;;;24.70;15.80;;;;;;;1.16;65.75;99808.97;4994137;28;20073;-30
2021/01/17 03:43:43;;;;;;;24.17;15.13;;;;;;;1.16;65.68;99806.41;4993791;28;20030;-30
2021/01/17 03:46:12;;;;;;;26.77;15.35;;;;;;;1.16;65.64;99811.53;5009109;28;20041;-30
2021/01/17 03:48:37;;;;;;;24.73;15.27;;;;;;;1.18;65.12;99815.00;4993893;28;20038;-30
2021/01/17 03:51:03;;;;;;;22.80;14.45;;;;;;;1.18;64.70;99815.00;4992566;28;20038;-30
2021/01/17 03:53:36;;;;;;;25.17;15.57;;;;;;;1.20;65.28;99823.63;4993896;28;20042;-30
2021/01/17 03:56:01;;;;;;;25.92;16.30;;;;;;;1.19;65.95;99826.97;4994034;28;20038;-30
2021/01/17 03:58:32;;;;;;;24.02;14.50;;;;;;;1.18;65.46;99825.22;4993936;28;20121;-30
2021/01/17 04:01:00;;;;;;;24.85;15.60;;;;;;;1.19;65.32;99826.97;4993729;28;20044;-30
2021/01/17 04:03:31;;;;;;;26.42;14.70;;;;;;;1.20;65.48;99823.63;5008309;28;20050;-30
2021/01/17 04:06:02;;;;;;;24.05;15.45;;;;;;;1.18;65.59;99830.31;4993098;28;20034;-30
2021/01/17 04:08:32;;;;;;;25.00;15.05;;;;;;;1.20;65.95;99826.16;4997067;28;20034;-30
2021/01/17 04:11:00;;;;;;;25.67;16.17;;;;;;;1.21;65.55;99827.06;4980615;28;20089;-30
2021/01/17 04:13:33;;;;;;;24.35;15.18;;;;;;;1.24;65.18;99829.78;4996074;28;20093;-30
2021/01/17 04:16:02;;;;;;;21.63;14.63;;;;;;;1.20;66.02;99823.63;4996017;28;20061;-29
2021/01/17 04:18:30;;;;;;;27.60;16.20;;;;;;;1.23;66.30;99827.13;4997341;28;20537;-30
2021/01/17 04:20:59;;;;;;;26.30;16.23;;;;;;;1.24;65.30;99834.88;4996049;28;20034;-30
2021/01/17 04:23:25;;;;;;;22.67;14.60;;;;;;;1.25;65.77;99836.59;4979953;28;20038;-30
2021/01/17 04:25:53;;;;;;;20.95;15.10;;;;;;;1.25;66.30;99831.50;4996111;28;20445;-30
2021/01/17 04:28:18;;;;;;;25.70;15.90;;;;;;;1.26;65.39;99833.25;4997400;28;20500;-30
2021/01/17 04:30:46;;;;;;;26.17;16.02;;;;;;;1.28;64.74;99823.13;4997160;28;20109;-30
2021/01/17 04:33:16;;;;;;;26.35;15.35;;;;;;;1.27;66.06;99818.81;4995894;28;20057;-29
2021/01/17 04:35:42;;;;;;;21.60;14.95;;;;;;;1.26;67.23;99822.19;4997003;28;20031;-29
2021/01/17 04:38:07;;;;;;;25.33;15.35;;;;;;;1.27;65.81;99822.25;4979622;28;20092;-30
2021/01/17 04:40:33;;;;;;;25.85;15.35;;;;;;;1.26;66.28;99828.16;4995801;28;20065;-30
2021/01/17 04:43:38;;;;;;;22.08;14.40;;;;;;;1.30;69.14;99829.19;4996906;28;20386;-30
2021/01/17 04:46:07;;;;;;;24.23;13.65;;;;;;;1.30;65.10;99827.50;5002469;28;20136;-30
2021/01/17 04:48:38;;;;;;;23.02;14.20;;;;;;;1.32;65.23;99835.25;4996841;28;20042;-29
2021/01/17 04:51:09;;;;;;;24.33;14.10;;;;;;;1.33;65.95;99829.31;4995512;28;20030;-30
2021/01/17 04:53:36;;;;;;;23.38;13.93;;;;;;;1.32;65.88;99831.03;4978808;28;20038;-30
2021/01/17 04:56:28;;;;;;;22.88;14.40;;;;;;;1.32;70.19;99832.72;4995363;28;20043;-30
2021/01/17 04:59:00;;;;;;;21.52;13.35;;;;;;;1.26;67.60;99832.41;4995386;28;20486;-30
2021/01/17 05:01:49;;;;;;;25.92;12.88;;;;;;;1.29;69.34;99827.44;4995436;28;20107;-30
2021/01/17 05:04:41;;;;;;;21.75;13.02;;;;;;;1.30;69.74;99841.97;4995720;28;20038;-30
2021/01/17 05:07:16;;;;;;;20.85;13.30;;;;;;;1.32;68.40;99835.25;4996917;28;20030;-30
2021/01/17 05:10:11;;;;;;;19.05;12.40;;;;;;;1.36;67.60;99832.03;4979064;28;20038;-30
2021/01/17 05:12:51;;;;;;;;;;;;;;;1.32;70.23;99843.78;4995321;28;20030;-30
2021/01/17 05:15:25;;;;;;;22.13;12.32;;;;;;;1.34;68.51;99841.28;5011893;28;19917;-30
2021/01/17 05:17:59;;;;;;;21.85;13.48;;;;;;;1.33;68.82;99844.66;4994601;28;20086;-30
2021/01/17 05:20:27;;;;;;;22.65;14.63;;;;;;;1.33;66.29;99839.53;5011477;28;20039;-30
2021/01/17 05:22:59;;;;;;;16.30;11.52;;;;;;;1.33;68.71;99834.44;4979030;28;20050;-30
2021/01/17 05:25:33;;;;;;;22.33;12.18;;;;;;;1.34;68.17;99836.19;4978101;28;20108;-30
2021/01/17 05:28:00;;;;;;;20.13;12.13;;;;;;;1.35;66.27;99832.84;5010726;28;20037;-30
2021/01/17 05:30:30;;;;;;;18.95;11.68;;;;;;;1.40;67.99;99833.94;4995010;28;20422;-29
2021/01/17 05:33:05;;;;;;;19.10;11.85;;;;;;;1.42;70.62;99836.56;4995545;28;20038;-30
2021/01/17 05:35:37;;;;;;;17.90;11.77;;;;;;;1.40;68.86;99831.41;4995204;28;20046;-29
2021/01/17 05:38:03;;;;;;;19.30;12.05;;;;;;;1.40;67.11;99826.28;4994661;28;20461;-29
2021/01/17 05:40:33;;;;;;;19.63;11.65;;;;;;;1.40;68.54;99839.06;4995768;28;20034;-30
2021/01/17 05:43:04;;;;;;;16.30;10.80;;;;;;;1.39;66.77;99832.19;4978593;28;20397;-29
2021/01/17 05:45:32;;;;;;;15.25;11.00;;;;;;;1.39;67.50;99842.41;4994387;28;20509;-30
2021/01/17 05:48:01;;;;;;;17.17;10.98;;;;;;;1.40;68.48;99840.75;4995717;28;20031;-30
2021/01/17 05:50:31;;;;;;;18.40;11.60;;;;;;;1.42;68.80;99844.22;4994348;28;20035;-30
2021/01/17 05:53:03;;;;;;;19.58;11.82;;;;;;;1.40;68.49;99833.94;4994722;28;20522;-30
2021/01/17 05:55:41;;;;;;;18.60;11.32;;;;;;;1.41;67.40;99848.47;4994366;28;20073;-30
2021/01/17 05:58:31;;;;;;;16.27;10.38;;;;;;;1.44;71.79;99848.63;4977803;28;20038;-30
2021/01/17 06:01:14;;;;;;;15.07;9.57;;;;;;;1.43;67.06;99851.09;4995826;28;20042;-30
2021/01/17 06:03:50;;;;;;;18.98;11.07;;;;;;;1.41;70.07;99842.47;5010496;28;20038;-29
2021/01/17 06:06:30;;;;;;;18.25;11.63;;;;;;;1.42;70.68;99852.78;4995268;28;20063;-30
2021/01/17 06:09:03;;;;;;;15.15;10.25;;;;;;;1.42;70.61;99862.13;4994156;28;20125;-30
2021/01/17 06:11:31;;;;;;;19.05;11.13;;;;;;;1.44;68.73;99868.19;4978138;28;20449;-30
2021/01/17 06:14:02;;;;;;;16.92;10.13;;;;;;;1.45;68.20;99865.72;4993941;28;20042;-30
2021/01/17 06:16:38;;;;;;;18.35;11.23;;;;;;;1.46;69.15;99870.03;4977792;28;20379;-30
2021/01/17 06:19:09;;;;;;;16.63;10.40;;;;;;;1.47;67.84;99870.88;4993705;28;20101;-31
2021/01/17 06:21:36;;;;;;;17.65;10.93;;;;;;;1.47;67.50;99874.34;4993859;28;20038;-30
2021/01/17 06:24:04;;;;;;;17.52;10.93;;;;;;;1.46;69.30;99867.47;4995192;28;20077;-30
2021/01/17 06:26:34;;;;;;;20.58;11.57;;;;;;;1.48;68.72;99864.97;4993852;28;20061;-30
2021/01/17 06:29:06;;;;;;;19.00;12.05;;;;;;;1.46;69.18;99880.25;4994411;28;20121;-30
2021/01/17 06:31:35;;;;;;;18.17;11.38;;;;;;;1.45;68.06;99872.47;4994403;28;20038;-30
2021/01/17 06:34:09;;;;;;;20.98;11.40;;;;;;;1.45;69.79;99875.03;4995118;28;20046;-30
2021/01/17 06:36:35;;;;;;;;;;;;;;;1.47;72.08;99879.44;4994512;28;20129;-30
2021/01/17 06:39:01;;;;;;;18.80;11.43;;;;;;;1.44;68.68;99881.84;5010044;28;20000;-30
2021/01/17 06:41:39;;;;;;;19.42;10.98;;;;;;;1.48;71.39;99886.28;4994734;28;20153;-30
2021/01/17 06:44:14;;;;;;;16.10;9.82;;;;;;;1.46;71.22;99884.47;4992937;28;20038;-30
2021/01/17 06:46:45;;;;;;;18.23;11.68;;;;;;;1.47;69.89;99883.66;4993430;28;20042;-30
2021/01/17 06:49:21;;;;;;;20.17;11.38;;;;;;;1.48;71.08;99887.97;5010299;28;20046;-30
2021/01/17 06:51:53;;;;;;;16.23;11.13;;;;;;;1.50;68.76;99884.69;4994271;28;20093;-30
2021/01/17 06:54:48;;;;;;;18.15;11.20;;;;;;;1.51;72.32;99896.66;4994440;28;20046;-30
2021/01/17 06:57:21;;;;;;;18.05;11.18;;;;;;;1.51;69.08;99896.66;4993513;28;20035;-30
2021/01/17 06:59:50;;;;;;;20.13;12.23;;;;;;;1.51;68.59;99899.22;5009785;28;20081;-30
2021/01/17 07:02:25;;;;;;;16.75;10.90;;;;;;;1.50;69.48;99905.13;4976730;28;20047;-30
2021/01/17 07:05:14;;;;;;;19.73;11.93;;;;;;;1.52;72.46;99906.06;4993919;28;20172;-29
2021/01/17 07:08:03;;;;;;;19.70;11.13;;;;;;;1.51;71.31;99911.97;4993389;28;20096;-30
2021/01/17 07:10:38;;;;;;;19.33;11.70;;;;;;;1.52;70.42;99915.44;4993075;28;20038;-30
2021/01/17 07:13:06;;;;;;;20.80;13.25;;;;;;;1.52;68.57;99920.53;4994257;28;20502;-30
2021/01/17 07:15:37;;;;;;;26.00;13.73;;;;;;;1.53;70.57;99924.84;4976545;28;20489;-30
2021/01/17 07:18:10;;;;;;;25.23;14.23;;;;;;;1.54;69.45;99926.59;4994231;28;20521;-30
2021/01/17 07:20:38;;;;;;;26.65;13.57;;;;;;;1.55;70.17;99930.03;4993046;28;20038;-30
2021/01/17 07:23:08;;;;;;;27.77;15.55;;;;;;;1.54;68.99;99921.50;4992996;28;20548;-30
2021/01/17 07:25:36;;;;;;;24.25;14.00;;;;;;;1.58;68.47;99932.75;4992431;28;20089;-30
2021/01/17 07:28:15;;;;;;;27.92;15.45;;;;;;;1.56;71.64;99935.19;4994012;28;20108;-30
2021/01/17 07:30:52;;;;;;;32.67;15.25;;;;;;;1.58;70.59;99937.84;4993303;28;20034;-30
2021/01/17 07:33:28;;;;;;;29.15;15.98;;;;;;;1.57;71.39;99941.19;4994252;28;20061;-30
2021/01/17 07:35:56;;;;;;;25.05;14.98;;;;;;;1.57;69.90;99946.31;4993768;28;20057;-30
2021/01/17 07:38:29;;;;;;;34.95;15.70;;;;;;;1.58;71.74;99956.59;4993728;28;20042;-30
2021/01/17 07:41:03;;;;;;;35.63;15.45;;;;;;;1.57;71.03;99949.72;4996271;28;20549;-30
2021/01/17 07:43:38;;;;;;;29.90;14.77;;;;;;;1.58;70.25;99956.59;4996605;28;20031;-30
2021/01/17 07:46:09;;;;;;;;;;;;;;;1.56;74.60;99965.00;4997488;28;20038;-30
2021/01/17 07:48:36;;;;;;;31.33;13.70;;;;;;;1.58;69.41;99965.94;4996859;28;19976;-29
2021/01/17 07:51:10;;;;;;;25.58;13.40;;;;;;;1.58;71.48;99966.81;5012724;28;20074;-30
2021/01/17 07:53:39;;;;;;;21.50;12.90;;;;;;;1.61;70.06;99977.19;5013084;28;20096;-29
2021/01/17 07:56:16;;;;;;;33.92;13.73;;;;;;;1.61;72.59;99982.31;4998464;28;20042;-30
2021/01/17 07:58:50;;;;;;;31.75;13.93;;;;;;;1.62;71.63;99985.75;4997659;28;20038;-30
2021/01/17 08:01:31;;;;;;;26.95;14.05;;;;;;;1.63;73.70;99990.06;4995964;28;20045;-31
2021/01/17 08:04:05;;;;;;;27.55;13.73;;;;;;;1.64;71.98;99990.13;4980525;28;20395;-30
2021/01/17 08:06:40;;;;;;;26.05;11.88;;;;;;;1.65;71.80;100001.22;4980160;28;20030;-30
2021/01/17 08:09:13;;;;;;;26.25;12.07;;;;;;;1.65;72.63;99996.09;4980382;28;20058;-31
2021/01/17 08:11:52;;;;;;;26.88;12.55;;;;;;;1.65;72.73;100001.22;4996757;28;20035;-30
2021/01/17 08:14:21;;;;;;;23.10;12.77;;;;;;;1.65;70.57;100003.78;4997515;28;20046;-30
2021/01/17 08:17:11;;;;;;;32.47;13.75;;;;;;;1.67;72.96;100010.75;4997112;28;20074;-30
2021/01/17 08:19:52;;;;;;;28.80;12.30;;;;;;;1.69;72.08;100015.06;4997276;28;20042;-30
2021/01/17 08:22:20;;;;;;;27.30;12.55;;;;;;;1.67;70.63;100014.94;4996820;28;20478;-30
2021/01/17 08:24:56;;;;;;;25.95;12.13;;;;;;;1.68;73.14;100024.38;4997209;28;20050;-30
2021/01/17 08:27:34;;;;;;;22.77;12.07;;;;;;;1.70;72.02;100025.34;4996751;28;20125;-30
2021/01/17 08:30:10;;;;;;;25.92;13.52;;;;;;;1.68;72.53;100037.16;4979854;28;20042;-30
2021/01/17 08:32:47;;;;;;;23.10;12.13;;;;;;;1.71;70.71;100036.47;4996059;28;20045;-30
2021/01/17 08:35:19;;;;;;;26.55;11.38;;;;;;;1.70;70.15;100038.13;4997644;28;20046;-30
2021/01/17 08:37:47;;;;;;;26.55;13.13;;;;;;;1.70;71.19;100038.13;4996328;28;20034;-30
2021/01/17 08:40:52;;;;;;;29.17;12.10;;;;;;;1.70;72.55;100039.81;4997383;28;20030;-30
2021/01/17 08:43:29;;;;;;;24.92;11.77;;;;;;;1.71;70.17;100044.97;4995957;28;20054;-30
2021/01/17 08:45:54;;;;;;;22.88;12.35;;;;;;;1.71;70.61;100052.66;4995307;28;20061;-30
2021/01/17 08:48:23;;;;;;;22.67;12.35;;;;;;;1.70;71.43;100044.91;4995585;28;20034;-29
2021/01/17 08:51:11;;;;;;;27.27;11.30;;;;;;;1.74;74.13;100059.59;4995539;28;20498;-30
2021/01/17 08:53:37;;;;;;;28.98;13.10;;;;;;;1.71;70.03;100055.19;4993099;28;20092;-31
2021/01/17 08:56:14;;;;;;;27.33;13.20;;;;;;;1.73;73.73;100062.94;4996399;28;20038;-30
2021/01/17 08:58:39;;;;;;;26.60;12.73;;;;;;;1.73;70.63;100063.84;4996677;28;20045;-29
2021/01/17 09:01:06;;;;;;;23.63;12.73;;;;;;;1.74;70.35;100075.81;4996662;28;20109;-30
2021/01/17 09:03:48;;;;;;;30.25;12.75;;;;;;;1.76;72.11;100069.09;4956514;29;20043;-30
2021/01/17 09:06:13;;;;;;;22.55;12.02;;;;;;;1.75;70.64;100075.03;4940608;29;20110;-30
2021/01/17 09:08:48;;;;;;;27.60;11.80;;;;;;;1.76;73.03;100078.44;4957563;28;20472;-30
2021/01/17 09:11:39;;;;;;;27.70;11.55;;;;;;;1.74;74.44;100074.91;4957524;28;20043;-30
2021/01/17 09:14:15;;;;;;;26.20;12.60;;;;;;;1.75;73.59;100077.56;4956423;29;20046;-30
2021/01/17 09:16:59;;;;;;;23.60;12.57;;;;;;;1.77;74.72;100088.75;4956255;28;20387;-31
2021/01/17 09:19:35;;;;;;;25.88;12.50;;;;;;;1.79;73.98;100093.94;4956852;29;20060;-30
2021/01/17 09:22:08;;;;;;;23.45;10.43;;;;;;;1.78;71.31;100094.72;4940191;29;20518;-30
2021/01/17 09:24:37;;;;;;;32.00;11.98;;;;;;;1.79;71.70;100097.34;4955947;29;20043;-30
2021/01/17 09:27:06;;;;;;;23.13;11.05;;;;;;;1.77;71.60;100098.97;4972332;28;20039;-30
2021/01/17 09:29:37;;;;;;;22.00;11.70;;;;;;;1.80;71.95;100100.81;4940584;29;20046;-30
2021/01/17 09:32:02;;;;;;;25.80;12.00;;;;;;;1.78;70.94;100108.41;4955704;29;20070;-30
2021/01/17 09:34:31;;;;;;;23.58;10.90;;;;;;;1.79;72.52;100112.69;4955743;29;20075;-30
2021/01/17 09:37:00;;;;;;;24.98;11.68;;;;;;;1.80;71.41;100116.13;4957250;28;20056;-30
2021/01/17 09:39:26;;;;;;;21.30;11.73;;;;;;;1.79;71.44;100115.25;4955832;29;20035;-30
2021/01/17 09:41:53;;;;;;;21.85;11.48;;;;;;;1.81;71.72;100125.56;4955849;28;20048;-31
2021/01/17 09:44:18;;;;;;;24.25;11.82;;;;;;;1.82;70.78;100130.75;4956699;28;20484;-30
2021/01/17 09:46:44;;;;;;;21.77;12.77;;;;;;;1.82;71.06;100128.19;4956870;28;20046;-30
2021/01/17 09:49:11;;;;;;;29.30;12.63;;;;;;;1.86;71.24;100136.03;4957041;28;20039;-30
2021/01/17 09:51:44;;;;;;;26.92;11.93;;;;;;;1.85;71.26;100139.38;4956803;28;20103;-30
2021/01/17 09:54:12;;;;;;;26.02;11.70;;;;;;;1.86;70.75;100148.81;4956112;29;20051;-30
2021/01/17 09:56:43;;;;;;;22.90;11.32;;;;;;;1.87;72.41;100148.00;4956630;28;20051;-31
2021/01/17 09:59:13;;;;;;;20.80;10.80;;;;;;;1.88;72.42;100155.75;4956170;28;20039;-35
2021/01/17 10:01:40;;;;;;;21.67;10.65;;;;;;;1.87;71.28;100161.66;4978716;28;20051;-31
2021/01/17 10:04:19;;;;;;;25.30;11.27;;;;;;;1.88;73.66;100162.56;4992450;28;20514;-31
2021/01/17 10:06:46;;;;;;;26.98;11.70;;;;;;;1.89;72.00;100165.19;4994632;28;20177;-31
2021/01/17 10:09:16;;;;;;;26.80;12.25;;;;;;;1.90;72.46;100172.03;4993477;28;20121;-31
2021/01/17 10:11:42;;;;;;;23.63;11.57;;;;;;;1.90;71.31;100169.50;4991903;28;20039;-30
2021/01/17 10:14:10;;;;;;;21.52;11.13;;;;;;;1.91;73.04;100176.38;4993210;28;20041;-30
2021/01/17 10:16:36;;;;;;;25.40;12.13;;;;;;;1.91;71.71;100180.63;4993804;28;20046;-30
2021/01/17 10:19:06;;;;;;;29.48;12.25;;;;;;;1.92;72.22;100185.78;4995162;28;20030;-29
2021/01/17 10:21:37;;;;;;;32.40;12.43;;;;;;;1.92;71.01;100184.94;4995053;28;20038;-30
2021/01/17 10:24:06;;;;;;;27.02;11.70;;;;;;;1.92;71.61;100190.03;4994170;28;20031;-30
2021/01/17 10:26:35;;;;;;;33.25;13.10;;;;;;;1.92;71.88;100193.47;4977392;28;20041;-30
2021/01/17 10:29:05;;;;;;;33.97;12.65;;;;;;;1.94;74.33;100188.44;4993733;28;20482;-30
2021/01/17 10:31:35;;;;;;;37.58;12.90;;;;;;;1.95;73.49;100195.28;4977528;28;20133;-30
2021/01/17 10:34:00;;;;;;;28.58;11.63;;;;;;;1.95;71.59;100195.28;4994310;28;20413;-31
2021/01/17 10:36:31;;;;;;;24.80;12.00;;;;;;;1.94;71.55;100196.97;4994851;28;20038;-30
2021/01/17 10:39:02;;;;;;;28.95;11.82;;;;;;;1.96;71.60;100205.63;4977517;28;20516;-30
2021/01/17 10:41:30;;;;;;;34.63;11.77;;;;;;;1.96;72.55;100200.50;4994649;28;20042;-30
2021/01/17 10:44:11;;;;;;;28.15;12.60;;;;;;;1.98;74.93;100206.59;4994213;28;20047;-30
2021/01/17 10:46:42;;;;;;;35.70;12.32;;;;;;;1.98;72.90;100201.47;4993512;28;20117;-30
2021/01/17 10:49:23;;;;;;;33.63;13.05;;;;;;;1.96;74.29;100208.19;4993654;28;20042;-30
2021/01/17 10:51:52;;;;;;;27.25;11.18;;;;;;;1.99;71.85;100212.56;4993667;28;20096;-29
2021/01/17 10:54:26;;;;;;;31.20;12.88;;;;;;;2.00;74.48;100213.47;4993399;28;20469;-30
2021/01/17 10:57:04;;;;;;;28.83;11.80;;;;;;;2.00;74.43;100205.78;5009376;28;20062;-29
2021/01/17 10:59:34;;;;;;;36.97;12.52;;;;;;;2.02;74.55;100217.84;4994725;28;20070;-29
2021/01/17 11:02:07;;;;;;;30.25;13.45;;;;;;;2.02;72.95;100220.41;5009130;28;20554;-29
2021/01/17 11:04:45;;;;;;;23.95;10.52;;;;;;;2.04;73.28;100216.25;4993248;28;20121;-29
2021/01/17 11:07:15;;;;;;;22.33;11.20;;;;;;;2.03;72.87;100211.94;4993363;28;20113;-29
2021/01/17 11:09:43;;;;;;;25.83;11.33;;;;;;;2.05;73.11;100219.69;4994368;28;20039;-30
2021/01/17 11:12:13;;;;;;;27.73;11.23;;;;;;;2.04;72.50;100221.38;4992894;28;20045;-29
2021/01/17 11:14:41;;;;;;;17.95;10.45;;;;;;;2.07;74.29;100225.75;4993687;28;20045;-29
2021/01/17 11:17:19;;;;;;;25.27;10.98;;;;;;;2.07;72.23;100224.09;4994554;28;20065;-29
2021/01/17 11:19:44;;;;;;;25.52;10.77;;;;;;;2.09;72.47;100227.63;4992903;28;20069;-30
2021/01/17 11:22:15;;;;;;;25.80;10.57;;;;;;;2.09;73.26;100235.28;4994120;28;20129;-30
2021/01/17 11:24:49;;;;;;;17.30;9.70;;;;;;;2.11;74.39;100231.09;4993170;28;20458;-29
2021/01/17 11:27:17;;;;;;;;;;;;;;;2.12;77.45;100237.13;4993065;28;20071;-30
2021/01/17 11:29:44;;;;;;;27.83;10.10;;;;;;;2.11;73.09;100236.22;4993800;28;19924;-30
2021/01/17 11:32:12;;;;;;;28.85;11.23;;;;;;;2.11;73.16;100238.78;4992884;28;20034;-30
2021/01/17 11:34:42;;;;;;;32.35;12.15;;;;;;;2.13;74.33;100238.88;4993521;28;20121;-30
2021/01/17 11:37:10;;;;;;;32.80;11.15;;;;;;;2.15;72.95;100241.50;4992559;28;20034;-30
2021/01/17 11:39:44;;;;;;;34.22;11.38;;;;;;;2.17;74.53;100235.69;4976425;28;20058;-30
2021/01/17 11:42:21;;;;;;;30.33;10.93;;;;;;;2.16;77.03;100235.59;4992935;28;20038;-30